createdAt,value
2018-12-06T00:00:07.414Z,3.69
2018-12-06T00:05:53.090Z,3.74
2018-12-06T00:08:22.399Z,3.71
2018-12-06T00:10:51.727Z,3.65
2018-12-06T00:13:21.052Z,3.68
2018-12-06T00:15:50.145Z,3.82
2018-12-06T00:18:19.339Z,3.83
2018-12-06T00:20:49.660Z,3.88
2018-12-06T00:23:18.847Z,3.88
2018-12-06T00:25:48.034Z,3.99
2018-12-06T00:28:17.342Z,3.89
2018-12-06T00:30:46.592Z,3.88
2018-12-06T00:33:15.981Z,3.76
2018-12-06T00:35:45.073Z,3.69
2018-12-06T00:38:14.244Z,3.92
2018-12-06T00:40:43.484Z,3.92
2018-12-06T00:43:12.778Z,3.73
2018-12-06T00:45:42.078Z,3.77
2018-12-06T00:48:11.203Z,3.71
2018-12-06T00:50:40.464Z,3.61
2018-12-06T00:53:09.626Z,3.64
2018-12-06T00:55:38.737Z,3.70
2018-12-06T00:58:08.117Z,3.85
2018-12-06T01:00:37.297Z,3.96
2018-12-06T01:03:06.420Z,4.03
2018-12-06T01:05:35.631Z,3.79
2018-12-06T01:08:05.067Z,3.92
2018-12-06T01:10:34.140Z,4.09
2018-12-06T01:13:03.503Z,4.15
2018-12-06T01:15:32.623Z,4.22
2018-12-06T01:18:01.731Z,4.17
2018-12-06T01:20:30.916Z,4.18
2018-12-06T01:23:00.155Z,4.10
2018-12-06T01:25:29.459Z,4.17
2018-12-06T01:27:58.591Z,4.18
2018-12-06T01:30:29.480Z,4.23
2018-12-06T01:32:58.580Z,4.27
2018-12-06T01:35:27.687Z,4.31
2018-12-06T01:37:56.793Z,4.32
2018-12-06T01:40:25.894Z,4.28
2018-12-06T01:42:54.982Z,4.35
2018-12-06T01:45:24.174Z,4.29
2018-12-06T01:47:53.316Z,4.41
2018-12-06T01:50:22.454Z,4.43
2018-12-06T01:52:51.556Z,4.45
2018-12-06T01:55:20.777Z,4.05
2018-12-06T01:57:49.945Z,4.52
2018-12-06T02:00:19.132Z,4.49
2018-12-06T02:02:48.367Z,4.49
2018-12-06T02:05:17.681Z,4.52
2018-12-06T02:07:46.793Z,4.59
2018-12-06T02:10:15.887Z,4.60
2018-12-06T02:12:45.044Z,4.57
2018-12-06T02:15:14.375Z,4.45
2018-12-06T02:17:43.480Z,4.38
2018-12-06T02:20:12.593Z,4.30
2018-12-06T02:22:41.796Z,4.12
2018-12-06T02:25:10.995Z,4.20
2018-12-06T02:27:40.132Z,4.05
2018-12-06T02:30:09.504Z,4.13
2018-12-06T02:32:38.622Z,4.17
2018-12-06T02:35:07.855Z,4.10
2018-12-06T02:37:36.952Z,3.96
2018-12-06T02:40:07.132Z,4.04
2018-12-06T02:42:36.565Z,4.03
2018-12-06T02:45:05.967Z,4.11
2018-12-06T02:47:35.063Z,4.22
2018-12-06T02:50:04.582Z,4.25
2018-12-06T02:52:33.706Z,4.31
2018-12-06T02:55:02.814Z,4.29
2018-12-06T02:57:31.971Z,4.32
2018-12-06T03:00:01.191Z,4.39
2018-12-06T03:02:30.285Z,4.36
2018-12-06T03:04:59.419Z,4.44
2018-12-06T03:07:28.538Z,4.53
2018-12-06T03:09:57.905Z,4.54
2018-12-06T03:12:27.134Z,4.56
2018-12-06T03:14:56.230Z,4.60
2018-12-06T03:17:25.557Z,4.65
2018-12-06T03:19:54.896Z,4.70
2018-12-06T03:22:24.059Z,4.70
2018-12-06T03:24:53.153Z,4.68
2018-12-06T03:27:22.290Z,4.54
2018-12-06T03:29:51.419Z,4.64
2018-12-06T03:32:20.637Z,4.68
2018-12-06T03:34:49.964Z,4.74
2018-12-06T03:37:19.051Z,4.70
2018-12-06T03:39:48.140Z,4.70
2018-12-06T03:42:17.294Z,4.82
2018-12-06T03:44:46.400Z,4.73
2018-12-06T03:47:15.502Z,4.88
2018-12-06T03:49:44.651Z,5.06
2018-12-06T03:52:13.904Z,4.99
2018-12-06T03:54:43.029Z,5.07
2018-12-06T03:57:12.189Z,5.22
2018-12-06T03:59:41.326Z,5.31
2018-12-06T04:02:10.424Z,5.45
2018-12-06T04:04:39.620Z,5.46
2018-12-06T04:07:08.728Z,5.48
2018-12-06T04:09:37.825Z,5.55
2018-12-06T04:12:06.949Z,5.55
2018-12-06T04:14:36.043Z,5.52
2018-12-06T04:17:05.154Z,5.59
2018-12-06T04:19:34.264Z,5.61
2018-12-06T04:22:03.372Z,5.59
2018-12-06T04:24:32.469Z,5.59
2018-12-06T04:27:01.599Z,5.61
2018-12-06T04:29:30.687Z,5.63
2018-12-06T04:31:59.766Z,5.70
2018-12-06T04:34:28.902Z,5.73
2018-12-06T04:36:57.995Z,5.75
2018-12-06T04:39:27.088Z,5.80
2018-12-06T04:41:56.317Z,5.79
2018-12-06T04:44:25.424Z,5.78
2018-12-06T04:46:54.536Z,5.74
2018-12-06T04:49:23.698Z,5.78
2018-12-06T04:51:52.811Z,5.79
2018-12-06T04:54:21.905Z,5.77
2018-12-06T04:56:51.050Z,5.77
2018-12-06T04:59:20.180Z,5.75
2018-12-06T05:01:49.255Z,5.72
2018-12-06T05:04:18.470Z,5.69
2018-12-06T05:06:47.571Z,5.74
2018-12-06T05:09:16.719Z,5.76
2018-12-06T05:11:46.075Z,5.77
2018-12-06T05:14:15.171Z,5.79
2018-12-06T05:16:44.529Z,5.79
2018-12-06T05:19:13.643Z,5.76
2018-12-06T05:21:42.736Z,5.78
2018-12-06T05:24:11.962Z,5.73
2018-12-06T05:26:41.204Z,5.71
2018-12-06T05:29:10.395Z,5.49
2018-12-06T05:31:39.486Z,5.45
2018-12-06T05:34:08.756Z,5.65
2018-12-06T05:36:37.869Z,5.66
2018-12-06T05:39:07.855Z,5.70
2018-12-06T05:41:36.956Z,5.75
2018-12-06T05:44:06.048Z,5.75
2018-12-06T05:46:35.130Z,5.81
2018-12-06T05:49:04.246Z,5.78
2018-12-06T05:51:33.437Z,5.81
2018-12-06T05:54:02.547Z,5.86
2018-12-06T05:56:31.695Z,5.82
2018-12-06T05:59:04.877Z,5.76
2018-12-06T06:01:39.965Z,5.73
2018-12-06T06:04:09.195Z,5.72
2018-12-06T06:06:38.280Z,5.76
2018-12-06T06:09:07.927Z,5.70
2018-12-06T06:11:37.032Z,5.70
2018-12-06T06:14:06.263Z,5.72
2018-12-06T06:16:35.383Z,5.67
2018-12-06T06:19:04.626Z,5.63
2018-12-06T06:21:34.741Z,5.69
2018-12-06T06:24:04.070Z,5.72
2018-12-06T06:26:33.167Z,5.73
2018-12-06T06:29:02.258Z,5.85
2018-12-06T06:31:31.390Z,5.85
2018-12-06T06:34:00.520Z,5.81
2018-12-06T06:36:29.650Z,5.78
2018-12-06T06:38:58.790Z,5.78
2018-12-06T06:41:27.987Z,5.93
2018-12-06T06:43:57.120Z,5.97
2018-12-06T06:46:26.376Z,5.98
2018-12-06T06:48:55.462Z,6.02
2018-12-06T06:51:24.712Z,5.95
2018-12-06T06:53:53.856Z,5.95
2018-12-06T06:56:23.055Z,6.01
2018-12-06T06:58:52.186Z,6.06
2018-12-06T07:01:21.348Z,6.10
2018-12-06T07:03:50.534Z,6.26
2018-12-06T07:06:19.644Z,6.34
2018-12-06T07:08:48.851Z,6.25
2018-12-06T07:11:18.223Z,6.30
2018-12-06T07:13:47.306Z,6.34
2018-12-06T07:16:16.428Z,6.34
2018-12-06T07:18:45.598Z,6.41
2018-12-06T07:21:15.803Z,6.43
2018-12-06T07:23:45.184Z,6.46
2018-12-06T07:26:14.295Z,6.50
2018-12-06T07:28:49.774Z,6.52
2018-12-06T07:31:18.931Z,6.53
2018-12-06T07:33:48.126Z,6.52
2018-12-06T07:36:17.254Z,6.52
2018-12-06T07:38:50.487Z,6.58
2018-12-06T07:41:21.307Z,6.68
2018-12-06T07:43:50.863Z,6.74
2018-12-06T07:46:20.958Z,6.80
2018-12-06T07:48:52.590Z,6.85
2018-12-06T07:51:21.718Z,6.93
2018-12-06T07:53:50.855Z,6.95
2018-12-06T07:56:21.087Z,7.01
2018-12-06T07:58:51.484Z,7.08
2018-12-06T08:01:22.659Z,7.13
2018-12-06T08:03:51.735Z,7.14
2018-12-06T08:06:20.819Z,7.14
2018-12-06T08:08:49.923Z,7.17
2018-12-06T08:11:19.584Z,7.21
2018-12-06T08:13:48.873Z,7.35
2018-12-06T08:16:18.001Z,7.39
2018-12-06T08:18:47.259Z,7.40
2018-12-06T08:21:16.577Z,7.39
2018-12-06T08:23:46.413Z,7.43
2018-12-06T08:26:15.515Z,7.52
2018-12-06T08:28:45.269Z,7.56
2018-12-06T08:31:18.615Z,7.64
2018-12-06T08:33:47.707Z,7.64
2018-12-06T08:36:18.407Z,7.63
2018-12-06T08:38:47.524Z,7.63
2018-12-06T08:41:20.101Z,7.68
2018-12-06T08:43:49.226Z,7.68
2018-12-06T08:46:19.716Z,7.69
2018-12-06T08:48:50.946Z,7.70
2018-12-06T08:51:22.456Z,7.90
2018-12-06T08:53:54.815Z,8.07
2018-12-06T08:56:24.015Z,8.14
2018-12-06T08:58:53.249Z,8.20
2018-12-06T09:01:23.350Z,8.23
2018-12-06T09:03:57.064Z,8.40
2018-12-06T09:06:26.196Z,8.06
2018-12-06T09:08:55.399Z,7.97
2018-12-06T09:11:24.735Z,7.94
2018-12-06T09:17:16.925Z,7.88
2018-12-06T09:19:46.763Z,7.92
2018-12-06T09:22:20.375Z,7.91
2018-12-06T09:24:49.533Z,7.93
2018-12-06T09:27:18.658Z,8.01
2018-12-06T09:29:49.124Z,8.01
2018-12-06T09:32:18.214Z,8.01
2018-12-06T09:34:47.302Z,8.06
2018-12-06T09:37:16.593Z,8.08
2018-12-06T09:39:56.799Z,8.11
2018-12-06T09:42:31.046Z,8.19
2018-12-06T09:45:00.248Z,8.23
2018-12-06T09:47:34.119Z,8.35
2018-12-06T09:50:03.447Z,8.32
2018-12-06T09:52:32.587Z,8.31
2018-12-06T09:55:01.792Z,8.28
2018-12-06T09:57:31.238Z,8.41
2018-12-06T10:00:01.432Z,8.43
2018-12-06T10:02:31.251Z,8.48
2018-12-06T10:05:00.375Z,8.47
2018-12-06T10:07:30.695Z,8.48
2018-12-06T10:09:59.828Z,8.57
2018-12-06T10:12:29.051Z,8.64
2018-12-06T10:14:58.429Z,8.62
2018-12-06T10:17:27.590Z,8.60
2018-12-06T10:19:56.775Z,8.64
2018-12-06T10:22:26.074Z,8.63
2018-12-06T10:24:59.054Z,8.64
2018-12-06T10:27:32.646Z,8.73
2018-12-06T10:30:07.248Z,8.78
2018-12-06T10:32:39.821Z,8.73
2018-12-06T10:35:10.134Z,8.77
2018-12-06T10:37:43.756Z,8.78
2018-12-06T10:40:12.858Z,8.79
2018-12-06T10:42:45.420Z,8.80
2018-12-06T10:45:15.410Z,8.75
2018-12-06T10:47:44.596Z,8.78
2018-12-06T10:50:14.280Z,8.83
2018-12-06T10:52:43.491Z,9.00
2018-12-06T10:55:12.846Z,8.97
2018-12-06T10:57:41.930Z,9.04
2018-12-06T11:00:15.347Z,9.10
2018-12-06T11:02:48.494Z,9.15
2018-12-06T11:05:18.181Z,9.25
2018-12-06T11:07:47.377Z,9.16
2018-12-06T11:10:16.455Z,9.13
2018-12-06T11:12:46.767Z,9.13
2018-12-06T11:15:16.885Z,9.12
2018-12-06T11:17:51.314Z,9.10
2018-12-06T11:20:24.095Z,9.10
2018-12-06T11:22:55.637Z,9.13
2018-12-06T11:25:24.759Z,9.10
2018-12-06T11:27:53.843Z,9.07
2018-12-06T11:30:22.955Z,9.12
2018-12-06T11:32:52.266Z,9.06
2018-12-06T11:35:21.423Z,9.12
2018-12-06T11:37:50.551Z,9.12
2018-12-06T11:40:20.891Z,9.13
2018-12-06T11:42:49.993Z,9.14
2018-12-06T11:45:19.174Z,9.17
2018-12-06T11:47:48.289Z,9.21
2018-12-06T11:50:17.380Z,9.42
2018-12-06T11:52:47.187Z,9.38
2018-12-06T11:55:16.346Z,9.47
2018-12-06T11:57:45.490Z,9.56
2018-12-06T12:00:14.787Z,9.53
2018-12-06T12:02:44.274Z,9.69
2018-12-06T12:05:17.765Z,9.54
2018-12-06T12:07:46.857Z,9.60
2018-12-06T12:10:17.854Z,9.78
2018-12-06T12:12:46.981Z,9.88
2018-12-06T12:15:16.075Z,9.79
2018-12-06T12:17:45.419Z,9.73
2018-12-06T12:20:19.678Z,9.65
2018-12-06T12:22:48.817Z,10.05
2018-12-06T12:25:18.071Z,10.46
2018-12-06T12:27:47.234Z,11.24
2018-12-06T12:30:16.345Z,13.19
2018-12-06T12:32:47.442Z,18.99
2018-12-06T12:35:18.838Z,17.33
2018-12-06T12:37:48.310Z,19.41
2018-12-06T12:40:17.914Z,21.68
2018-12-06T12:42:47.050Z,22.46
2018-12-06T12:45:16.250Z,19.22
2018-12-06T12:47:45.492Z,18.08
2018-12-06T12:50:14.806Z,20.49
2018-12-06T12:52:44.106Z,19.25
2018-12-06T12:55:13.408Z,20.66
2018-12-06T12:57:42.551Z,16.80
2018-12-06T13:00:11.905Z,14.38
2018-12-06T13:02:41.176Z,16.82
2018-12-06T13:05:10.404Z,15.22
2018-12-06T13:07:39.732Z,16.92
2018-12-06T13:10:09.040Z,13.87
2018-12-06T13:12:38.361Z,12.78
2018-12-06T13:15:08.326Z,12.60
2018-12-06T13:17:37.815Z,13.46
2018-12-06T13:20:07.620Z,13.52
2018-12-06T13:22:37.068Z,13.30
2018-12-06T13:25:06.872Z,12.24
2018-12-06T13:27:36.431Z,13.50
2018-12-06T13:30:06.125Z,13.72
2018-12-06T13:32:35.362Z,13.04
2018-12-06T13:35:05.395Z,12.92
2018-12-06T13:37:34.497Z,14.15
2018-12-06T13:40:04.004Z,16.47
2018-12-06T13:42:33.242Z,13.49
2018-12-06T13:45:03.562Z,16.51
2018-12-06T13:47:33.232Z,13.20
2018-12-06T13:50:07.860Z,12.30
2018-12-06T13:52:36.970Z,12.02
2018-12-06T13:55:06.490Z,11.61
2018-12-06T13:57:35.671Z,11.67
2018-12-06T14:00:06.406Z,11.44
2018-12-06T14:02:35.903Z,11.26
2018-12-06T14:05:05.219Z,11.04
2018-12-06T14:07:37.079Z,10.78
2018-12-06T14:10:06.303Z,10.77
2018-12-06T14:12:40.075Z,10.68
2018-12-06T14:15:09.371Z,10.67
2018-12-06T14:17:38.824Z,10.58
2018-12-06T14:20:10.271Z,10.55
2018-12-06T14:22:39.616Z,10.61
2018-12-06T14:25:08.956Z,10.50
2018-12-06T14:27:39.472Z,10.42
2018-12-06T14:30:09.010Z,10.39
2018-12-06T14:32:38.284Z,10.28
2018-12-06T14:35:09.898Z,10.26
2018-12-06T14:37:39.024Z,10.23
2018-12-06T14:40:08.573Z,10.22
2018-12-06T14:42:37.678Z,10.12
2018-12-06T14:45:07.582Z,10.09
2018-12-06T14:47:36.802Z,10.04
2018-12-06T14:50:06.957Z,10.00
2018-12-06T14:52:36.258Z,9.98
2018-12-06T14:55:06.753Z,9.99
2018-12-06T14:57:36.656Z,9.92
2018-12-06T15:00:10.287Z,9.91
2018-12-06T15:02:39.475Z,9.87
2018-12-06T15:05:09.879Z,9.84
2018-12-06T15:07:39.395Z,9.84
2018-12-06T15:10:08.995Z,9.81
2018-12-06T15:12:41.680Z,9.81
2018-12-06T15:15:10.944Z,9.78
2018-12-06T15:17:41.876Z,9.76
2018-12-06T15:20:11.082Z,9.78
2018-12-06T15:22:40.620Z,9.76
2018-12-06T15:25:09.736Z,9.76
2018-12-06T15:27:39.172Z,9.75
2018-12-06T15:30:10.085Z,9.74
2018-12-06T15:32:39.284Z,9.70
2018-12-06T15:35:08.679Z,9.72
2018-12-06T15:37:38.591Z,9.68
2018-12-06T15:40:07.896Z,9.05
2018-12-06T15:42:37.833Z,9.71
2018-12-06T15:45:07.246Z,9.69
2018-12-06T15:47:36.448Z,9.65
2018-12-06T15:50:06.076Z,9.63
2018-12-06T15:52:35.935Z,9.61
2018-12-06T15:55:05.722Z,9.62
2018-12-06T15:57:34.811Z,9.60
2018-12-06T16:00:05.476Z,9.60
2018-12-06T16:02:34.644Z,9.58
2018-12-06T16:05:04.988Z,9.56
2018-12-06T16:07:34.337Z,9.54
2018-12-06T16:10:04.470Z,9.51
2018-12-06T16:12:33.936Z,9.51
2018-12-06T16:15:03.560Z,9.49
2018-12-06T16:17:32.725Z,9.47
2018-12-06T16:20:01.955Z,9.55
2018-12-06T16:22:31.080Z,9.53
2018-12-06T16:25:00.453Z,9.49
2018-12-06T16:27:31.516Z,9.41
2018-12-06T16:30:00.981Z,9.36
2018-12-06T16:32:30.098Z,9.31
2018-12-06T16:34:59.272Z,9.31
2018-12-06T16:37:28.563Z,9.29
2018-12-06T16:40:07.605Z,9.27
2018-12-06T16:42:37.493Z,9.23
2018-12-06T16:45:07.192Z,9.14
2018-12-06T16:47:36.325Z,9.19
2018-12-06T16:50:06.487Z,9.18
2018-12-06T16:52:36.318Z,9.14
2018-12-06T16:55:07.210Z,9.26
2018-12-06T16:57:36.356Z,9.22
2018-12-06T17:00:08.833Z,9.22
2018-12-06T17:02:37.973Z,9.23
2018-12-06T17:05:07.801Z,9.25
2018-12-06T17:07:37.063Z,9.27
2018-12-06T17:10:07.461Z,9.24
2018-12-06T17:12:36.587Z,9.29
2018-12-06T17:15:06.346Z,9.25
2018-12-06T17:17:35.458Z,9.27
2018-12-06T17:20:05.580Z,9.24
2018-12-06T17:22:34.802Z,9.21
2018-12-06T17:25:04.484Z,9.19
2018-12-06T17:27:33.577Z,9.21
2018-12-06T17:30:03.424Z,9.18
2018-12-06T17:32:33.850Z,9.16
2018-12-06T17:35:03.056Z,9.19
2018-12-06T17:37:32.474Z,9.16
2018-12-06T17:40:01.564Z,9.18
2018-12-06T17:42:30.666Z,9.17
2018-12-06T17:45:00.438Z,9.18
2018-12-06T17:47:30.442Z,9.20
2018-12-06T17:49:59.580Z,9.19
2018-12-06T17:52:28.946Z,9.21
2018-12-06T17:54:58.104Z,9.21
2018-12-06T17:57:27.220Z,9.24
2018-12-06T17:59:56.448Z,9.26
2018-12-06T18:02:25.860Z,9.24
2018-12-06T18:04:54.941Z,9.20
2018-12-06T18:07:24.458Z,9.23
2018-12-06T18:09:54.494Z,9.27
2018-12-06T18:12:24.356Z,9.41
2018-12-06T18:14:54.120Z,9.33
2018-12-06T18:17:23.199Z,9.27
2018-12-06T18:19:52.786Z,9.33
2018-12-06T18:22:21.907Z,9.31
2018-12-06T18:24:51.003Z,9.35
2018-12-06T18:27:20.202Z,9.30
2018-12-06T18:29:49.332Z,9.35
2018-12-06T18:32:18.565Z,9.34
2018-12-06T18:34:47.779Z,9.34
2018-12-06T18:37:16.911Z,9.24
2018-12-06T18:39:46.047Z,9.38
2018-12-06T18:42:15.145Z,9.38
2018-12-06T18:44:44.287Z,9.37
2018-12-06T18:47:13.620Z,9.34
2018-12-06T18:49:42.893Z,9.31
2018-12-06T18:52:12.018Z,9.27
2018-12-06T18:54:41.512Z,9.33
2018-12-06T18:57:10.589Z,9.33
2018-12-06T18:59:39.710Z,9.34
2018-12-06T19:02:08.911Z,9.31
2018-12-06T19:04:37.999Z,9.31
2018-12-06T19:07:07.294Z,9.29
2018-12-06T19:09:36.360Z,9.27
2018-12-06T19:12:05.444Z,9.12
2018-12-06T19:14:34.542Z,9.20
2018-12-06T19:17:03.654Z,9.19
2018-12-06T19:19:37.939Z,9.22
2018-12-06T19:22:07.139Z,9.21
2018-12-06T19:24:36.350Z,9.21
2018-12-06T19:27:05.655Z,9.21
2018-12-06T19:29:34.871Z,9.22
2018-12-06T19:32:04.279Z,9.18
2018-12-06T19:34:33.943Z,9.22
2018-12-06T19:37:03.107Z,9.24
2018-12-06T19:39:32.214Z,9.17
2018-12-06T19:42:01.307Z,9.13
2018-12-06T19:44:33.929Z,9.11
2018-12-06T19:47:04.826Z,9.12
2018-12-06T19:49:35.229Z,9.12
2018-12-06T19:52:04.744Z,9.09
2018-12-06T19:54:38.263Z,9.10
2018-12-06T19:57:07.355Z,9.10
2018-12-06T19:59:36.460Z,9.05
2018-12-06T20:02:09.568Z,9.07
2018-12-06T20:04:38.671Z,9.06
2018-12-06T20:07:09.503Z,9.10
2018-12-06T20:09:38.583Z,9.12
2018-12-06T20:12:08.161Z,9.13
2018-12-06T20:14:37.281Z,9.12
2018-12-06T20:17:06.356Z,9.21
2018-12-06T20:19:35.464Z,9.17
2018-12-06T20:22:05.079Z,9.17
2018-12-06T20:24:34.193Z,9.18
2018-12-06T20:27:03.286Z,9.18
2018-12-06T20:29:32.379Z,9.23
2018-12-06T20:32:01.599Z,9.18
2018-12-06T20:34:30.703Z,9.19
2018-12-06T20:36:59.898Z,9.20
2018-12-06T20:39:29.798Z,9.21
2018-12-06T20:41:58.888Z,9.25
2018-12-06T20:44:28.125Z,9.18
2018-12-06T20:46:57.236Z,9.18
2018-12-06T20:49:26.383Z,9.19
2018-12-06T20:51:55.711Z,9.18
2018-12-06T20:54:24.883Z,9.23
2018-12-06T20:56:55.117Z,9.22
2018-12-06T20:59:24.414Z,9.24
2018-12-06T21:01:54.896Z,9.25
2018-12-06T21:04:24.773Z,9.23
2018-12-06T21:06:53.876Z,9.21
2018-12-06T21:09:23.426Z,9.26
2018-12-06T21:11:53.034Z,9.21
2018-12-06T21:14:22.330Z,9.24
2018-12-06T21:16:51.690Z,9.21
2018-12-06T21:19:20.892Z,9.17
2018-12-06T21:21:50.036Z,9.18
2018-12-06T21:24:19.118Z,9.17
2018-12-06T21:26:48.298Z,9.21
2018-12-06T21:29:17.535Z,9.17
2018-12-06T21:31:46.682Z,9.21
2018-12-06T21:34:15.780Z,9.24
2018-12-06T21:36:45.142Z,9.21
2018-12-06T21:39:14.278Z,9.24
2018-12-06T21:41:43.374Z,9.34
2018-12-06T21:44:12.502Z,9.28
2018-12-06T21:46:41.582Z,9.33
2018-12-06T21:49:10.691Z,9.34
2018-12-06T21:51:39.853Z,9.33
2018-12-06T21:54:09.256Z,9.37
2018-12-06T21:56:38.359Z,9.36
2018-12-06T21:59:07.476Z,9.35
2018-12-06T22:01:37.106Z,9.40
2018-12-06T22:04:06.494Z,9.36
2018-12-06T22:06:35.642Z,9.47
2018-12-06T22:09:07.280Z,9.50
2018-12-06T22:11:36.404Z,9.44
2018-12-06T22:14:05.832Z,9.44
2018-12-06T22:16:34.928Z,9.46
2018-12-06T22:19:04.194Z,9.47
2018-12-06T22:21:33.294Z,9.53
2018-12-06T22:24:02.402Z,9.45
2018-12-06T22:26:31.485Z,9.49
2018-12-06T22:29:01.198Z,9.53
2018-12-06T22:31:30.404Z,9.50
2018-12-06T22:33:59.494Z,9.50
2018-12-06T22:36:28.680Z,9.56
2018-12-06T22:38:57.804Z,9.54
2018-12-06T22:41:26.903Z,9.54
2018-12-06T22:43:55.998Z,9.44
2018-12-06T22:46:25.170Z,9.41
2018-12-06T22:48:54.598Z,9.48
2018-12-06T22:51:24.463Z,9.50
2018-12-06T22:53:53.920Z,9.49
2018-12-06T22:56:23.152Z,9.48
2018-12-06T22:58:52.506Z,9.51
2018-12-06T23:01:27.415Z,9.60
2018-12-06T23:03:56.618Z,9.57
2018-12-06T23:06:25.722Z,9.58
2018-12-06T23:08:54.835Z,9.50
2018-12-06T23:11:24.038Z,9.52
2018-12-06T23:13:53.125Z,9.58
2018-12-06T23:16:22.336Z,9.56
2018-12-06T23:18:51.488Z,9.46
2018-12-06T23:21:20.702Z,9.62
2018-12-06T23:23:49.767Z,9.63
2018-12-06T23:26:18.883Z,9.65
2018-12-06T23:28:48.076Z,9.63
2018-12-06T23:31:17.402Z,9.60
2018-12-06T23:33:46.843Z,9.56
2018-12-06T23:36:15.988Z,9.57
2018-12-06T23:38:45.099Z,9.55
2018-12-06T23:41:14.297Z,9.54
2018-12-06T23:43:43.467Z,9.60
2018-12-06T23:46:12.566Z,9.63
2018-12-06T23:48:41.786Z,9.57
2018-12-06T23:51:22.269Z,9.57
2018-12-06T23:53:51.367Z,9.56
2018-12-06T23:56:20.459Z,9.60
2018-12-06T23:58:49.544Z,9.48
